Time;durP1;ratioP1;P1;durP2;ratioP2;P2;SDS_P1;SDS_P2;PMS_P1;PMS_P2;Temp;Humidity;BMP_temperature;BMP_pressure;BME280_temperature;BME280_humidity;BME280_pressure;Samples;Min_cycle;Max_cycle;Signal;HPM_P1;HPM_P2
2020/12/28 00:02:11;;;;;;;4.53;2.05;;;3.30;99.90;;;;;;5075571;28;20489;-81
2020/12/28 00:04:38;;;;;;;3.28;2.22;;;3.30;99.90;;;;;;5093646;28;20031;-81
2020/12/28 00:07:06;;;;;;;3.05;2.10;;;3.30;99.90;;;;;;5075434;28;20027;-81
2020/12/28 00:09:31;;;;;;;2.97;1.80;;;3.30;99.90;;;;;;5093362;28;20376;-81
2020/12/28 00:11:58;;;;;;;3.95;1.95;;;3.30;99.90;;;;;;5093417;28;20016;-81
2020/12/28 00:14:25;;;;;;;7.60;4.13;;;3.30;99.90;;;;;;5093877;28;20024;-81
2020/12/28 00:16:52;;;;;;;4.25;2.60;;;3.30;99.90;;;;;;5093491;28;20472;-81
2020/12/28 00:19:17;;;;;;;2.22;1.50;;;3.30;99.90;;;;;;5075508;28;20024;-81
2020/12/28 00:21:44;;;;;;;5.15;2.15;;;3.40;99.90;;;;;;5075367;28;20020;-81
2020/12/28 00:24:11;;;;;;;4.47;2.72;;;3.40;99.90;;;;;;5075378;28;20024;-81
2020/12/28 00:26:46;;;;;;;2.45;1.48;;;3.40;99.90;;;;;;5093506;28;20423;-82
2020/12/28 00:29:14;;;;;;;4.30;1.55;;;3.40;99.90;;;;;;5075365;28;20024;-81
2020/12/28 00:31:43;;;;;;;2.13;1.67;;;3.50;99.90;;;;;;5075283;28;20032;-82
2020/12/28 00:34:10;;;;;;;3.47;1.65;;;3.40;99.90;;;;;;5093412;28;20074;-81
2020/12/28 00:36:36;;;;;;;2.95;1.80;;;3.40;99.90;;;;;;5093357;28;20031;-82
2020/12/28 00:39:04;;;;;;;2.83;1.75;;;3.40;99.90;;;;;;5093305;28;20067;-82
2020/12/28 00:41:30;;;;;;;2.78;1.83;;;3.50;99.90;;;;;;5093505;28;20384;-81
2020/12/28 00:43:55;;;;;;;2.92;1.90;;;3.50;99.90;;;;;;5093331;28;20024;-81
2020/12/28 00:46:21;;;;;;;2.60;1.95;;;3.50;99.90;;;;;;5093306;28;20027;-81
2020/12/28 00:48:47;;;;;;;5.93;2.05;;;3.50;99.90;;;;;;5075146;28;20031;-81
2020/12/28 00:51:14;;;;;;;2.00;1.80;;;3.50;99.90;;;;;;5093493;28;20028;-81
2020/12/28 00:53:40;;;;;;;3.28;2.05;;;3.50;99.90;;;;;;5093241;28;20024;-83
2020/12/28 00:56:06;;;;;;;3.00;1.90;;;3.50;99.90;;;;;;5075133;28;20067;-81
2020/12/28 00:58:36;;;;;;;2.88;1.65;;;3.50;99.90;;;;;;5093362;28;20028;-81
2020/12/28 01:01:03;;;;;;;2.97;1.88;;;3.50;99.90;;;;;;5075021;28;20517;-81
2020/12/28 01:03:29;;;;;;;2.40;1.98;;;3.40;99.90;;;;;;5093163;28;20016;-82
2020/12/28 01:05:54;;;;;;;2.88;2.00;;;3.40;99.90;;;;;;5074962;28;20044;-81
2020/12/28 01:08:20;;;;;;;3.30;2.13;;;3.40;99.90;;;;;;5075025;28;20028;-81
2020/12/28 01:10:46;;;;;;;3.53;1.90;;;3.40;99.90;;;;;;5074948;28;20036;-81
2020/12/28 01:13:11;;;;;;;3.13;2.15;;;3.40;99.90;;;;;;5074695;28;20056;-81
2020/12/28 01:15:38;;;;;;;2.92;2.30;;;3.40;99.90;;;;;;5075009;28;20140;-81
2020/12/28 01:18:04;;;;;;;3.63;2.03;;;3.40;99.90;;;;;;5074851;28;20027;-81
2020/12/28 01:20:30;;;;;;;2.67;1.98;;;3.40;99.90;;;;;;5075218;28;20024;-81
2020/12/28 01:22:55;;;;;;;1.95;1.63;;;3.40;99.90;;;;;;5078403;28;20016;-81
2020/12/28 01:25:21;;;;;;;2.08;1.88;;;3.40;99.90;;;;;;5096842;28;20016;-82
2020/12/28 01:27:47;;;;;;;2.35;1.90;;;3.40;99.90;;;;;;5078359;28;20035;-81
2020/12/28 01:30:12;;;;;;;2.28;1.50;;;3.40;99.90;;;;;;5096785;28;20052;-82
2020/12/28 01:32:38;;;;;;;1.80;1.70;;;3.40;99.90;;;;;;5078281;28;20485;-82
2020/12/28 01:35:04;;;;;;;2.35;2.05;;;3.40;99.90;;;;;;5078263;28;20028;-82
2020/12/28 01:37:30;;;;;;;4.13;2.10;;;3.40;99.90;;;;;;5096241;28;20436;-81
2020/12/28 01:39:55;;;;;;;4.57;2.33;;;3.40;99.90;;;;;;5096282;28;20016;-82
2020/12/28 01:42:21;;;;;;;2.95;1.67;;;3.30;99.90;;;;;;5078091;28;20540;-82
2020/12/28 01:44:47;;;;;;;3.33;2.20;;;3.30;99.90;;;;;;5077976;28;20026;-82
2020/12/28 01:47:13;;;;;;;3.47;2.42;;;3.30;99.90;;;;;;5096205;28;20027;-82
2020/12/28 01:49:40;;;;;;;2.15;1.83;;;3.30;99.90;;;;;;5077928;28;20536;-82
2020/12/28 01:52:05;;;;;;;3.03;2.47;;;3.30;99.90;;;;;;5096112;28;20502;-82
2020/12/28 01:54:32;;;;;;;3.90;2.42;;;3.40;99.90;;;;;;5077926;28;20028;-82
2020/12/28 01:56:57;;;;;;;3.40;2.33;;;3.40;99.90;;;;;;5096570;28;20099;-82
2020/12/28 01:59:24;;;;;;;3.65;2.90;;;3.40;99.90;;;;;;5077740;28;20542;-82
2020/12/28 02:01:52;;;;;;;2.97;2.60;;;3.40;99.90;;;;;;5096065;28;20101;-82
2020/12/28 02:04:18;;;;;;;2.90;2.55;;;3.30;99.90;;;;;;5095991;28;20054;-84
2020/12/28 02:06:45;;;;;;;4.18;2.60;;;3.30;99.90;;;;;;5078176;28;20470;-83
2020/12/28 02:09:10;;;;;;;4.20;3.17;;;3.30;99.90;;;;;;5095776;28;20155;-82
2020/12/28 02:11:36;;;;;;;3.50;2.80;;;3.30;99.90;;;;;;5095678;28;20107;-82
2020/12/28 02:14:02;;;;;;;3.38;2.72;;;3.30;99.90;;;;;;5095811;28;20509;-84
2020/12/28 02:16:28;;;;;;;4.97;3.22;;;3.30;99.90;;;;;;5095635;28;20539;-82
2020/12/28 02:18:53;;;;;;;3.42;2.95;;;3.30;99.90;;;;;;5077353;28;20058;-83
2020/12/28 02:21:19;;;;;;;5.20;3.20;;;3.20;99.90;;;;;;5077472;28;20028;-83
2020/12/28 02:23:45;;;;;;;3.80;3.38;;;3.20;99.90;;;;;;5095420;28;20383;-81
2020/12/28 02:26:11;;;;;;;3.28;2.97;;;3.20;99.90;;;;;;5077350;28;20055;-82
2020/12/28 02:28:37;;;;;;;6.07;3.67;;;3.20;99.90;;;;;;5095421;28;20391;-82
2020/12/28 02:31:04;;;;;;;4.25;3.85;;;3.20;99.90;;;;;;5077110;28;20028;-82
2020/12/28 02:33:30;;;;;;;3.97;3.58;;;3.10;99.90;;;;;;5095392;28;20046;-83
2020/12/28 02:35:55;;;;;;;5.68;3.88;;;3.10;99.90;;;;;;5077074;28;20023;-82
2020/12/28 02:38:21;;;;;;;4.72;3.60;;;3.10;99.90;;;;;;5095043;28;20032;-82
2020/12/28 02:40:47;;;;;;;4.07;3.25;;;3.10;99.90;;;;;;5076900;28;20070;-82
2020/12/28 02:43:12;;;;;;;3.63;3.00;;;3.10;99.90;;;;;;5076836;28;20021;-83
2020/12/28 02:45:38;;;;;;;3.25;2.95;;;3.10;99.90;;;;;;5076843;28;20016;-83
2020/12/28 02:48:04;;;;;;;3.50;3.05;;;3.10;99.90;;;;;;5095401;28;20026;-81
2020/12/28 02:50:30;;;;;;;2.95;2.45;;;3.10;99.90;;;;;;5094975;28;20024;-82
2020/12/28 02:52:56;;;;;;;3.10;2.80;;;3.10;99.90;;;;;;5076750;28;20498;-82
2020/12/28 02:55:21;;;;;;;3.53;3.13;;;3.10;99.90;;;;;;5076743;28;20026;-82
2020/12/28 02:57:47;;;;;;;3.25;2.95;;;3.10;99.90;;;;;;5094778;28;20027;-83
2020/12/28 03:00:13;;;;;;;3.28;2.97;;;3.10;99.90;;;;;;5076814;28;20433;-82
2020/12/28 03:02:39;;;;;;;3.85;2.72;;;3.10;99.90;;;;;;5076693;28;20024;-82
2020/12/28 03:05:05;;;;;;;3.05;2.75;;;3.00;99.90;;;;;;5076515;28;20387;-82
2020/12/28 03:07:30;;;;;;;3.50;2.53;;;3.10;99.90;;;;;;5094502;28;20067;-82
2020/12/28 03:09:56;;;;;;;3.10;2.70;;;3.10;99.90;;;;;;5094595;28;20028;-82
2020/12/28 03:12:23;;;;;;;4.15;2.67;;;3.10;99.90;;;;;;5076166;28;20030;-82
2020/12/28 03:14:49;;;;;;;2.15;1.95;;;3.10;99.90;;;;;;5076412;28;20497;-82
2020/12/28 03:17:14;;;;;;;3.03;1.90;;;3.10;99.90;;;;;;5076149;28;20020;-83
2020/12/28 03:19:40;;;;;;;3.85;1.85;;;3.10;99.90;;;;;;5076296;28;20421;-83
2020/12/28 03:22:06;;;;;;;2.53;2.08;;;3.10;99.90;;;;;;5076336;28;20379;-82
2020/12/28 03:24:32;;;;;;;3.72;2.20;;;3.10;99.90;;;;;;5076153;28;20154;-82
2020/12/28 03:27:03;;;;;;;2.95;1.90;;;3.00;99.90;;;;;;5076100;28;20601;-82
2020/12/28 03:29:33;;;;;;;3.33;2.10;;;3.00;99.90;;;;;;5094845;28;20020;-83
2020/12/28 03:32:00;;;;;;;2.35;2.03;;;3.00;99.90;;;;;;5076005;28;20042;-82
2020/12/28 03:34:25;;;;;;;2.63;2.05;;;3.00;99.90;;;;;;5094126;28;20049;-82
2020/12/28 03:36:51;;;;;;;1.80;1.70;;;3.00;99.90;;;;;;5075962;28;20024;-82
2020/12/28 03:39:17;;;;;;;1.85;1.67;;;3.00;99.90;;;;;;5094016;28;20471;-82
2020/12/28 03:41:43;;;;;;;3.08;1.77;;;3.00;99.90;;;;;;5094289;28;20020;-82
2020/12/28 03:44:08;;;;;;;1.85;1.73;;;3.00;99.90;;;;;;5093517;28;20471;-82
2020/12/28 03:46:34;;;;;;;3.15;1.60;;;2.90;99.90;;;;;;5075824;28;20145;-82
2020/12/28 03:49:00;;;;;;;2.20;1.77;;;2.90;99.90;;;;;;5075821;28;20032;-82
2020/12/28 03:51:26;;;;;;;3.25;1.67;;;2.90;99.90;;;;;;5093858;28;20383;-82
2020/12/28 03:53:52;;;;;;;1.83;1.50;;;2.80;99.90;;;;;;5093809;28;20090;-82
2020/12/28 03:56:19;;;;;;;2.33;1.50;;;2.90;99.90;;;;;;5075747;28;20076;-82
2020/12/28 03:58:44;;;;;;;2.25;1.63;;;2.90;99.90;;;;;;5075559;28;20063;-83
2020/12/28 04:01:11;;;;;;;1.65;1.48;;;3.00;99.90;;;;;;5093808;28;20054;-83
2020/12/28 04:03:36;;;;;;;1.50;1.40;;;3.00;99.90;;;;;;5075627;28;20020;-82
2020/12/28 04:06:02;;;;;;;2.28;1.60;;;2.90;99.90;;;;;;5075559;28;20132;-82
2020/12/28 04:08:28;;;;;;;1.45;1.30;;;2.90;99.90;;;;;;5075583;28;20031;-83
2020/12/28 04:10:54;;;;;;;1.40;1.30;;;2.90;99.90;;;;;;5075580;28;20035;-82
2020/12/28 04:13:20;;;;;;;1.92;1.50;;;2.90;99.90;;;;;;5075268;28;20067;-82
2020/12/28 04:15:46;;;;;;;1.83;1.50;;;3.00;99.90;;;;;;5093580;28;20028;-82
2020/12/28 04:18:11;;;;;;;4.22;1.25;;;2.90;99.90;;;;;;5075382;28;20113;-82
2020/12/28 04:20:37;;;;;;;1.85;1.30;;;2.90;99.90;;;;;;5093575;28;20539;-82
2020/12/28 04:23:03;;;;;;;1.58;1.40;;;2.80;99.90;;;;;;5075449;28;20027;-82
2020/12/28 04:25:28;;;;;;;1.38;1.15;;;2.90;99.90;;;;;;5093527;28;20024;-82
2020/12/28 04:27:54;;;;;;;1.30;1.20;;;2.90;99.90;;;;;;5093484;28;20032;-83
2020/12/28 04:30:20;;;;;;;1.80;1.35;;;2.90;99.90;;;;;;5093476;28;20498;-82
2020/12/28 04:32:46;;;;;;;1.52;1.20;;;2.90;99.90;;;;;;5075370;28;20541;-81
2020/12/28 04:35:12;;;;;;;1.88;1.27;;;2.90;99.90;;;;;;5075610;28;20043;-82
2020/12/28 04:37:38;;;;;;;1.77;1.35;;;2.90;99.90;;;;;;5093324;28;20028;-82
2020/12/28 04:40:04;;;;;;;2.17;1.10;;;2.90;99.90;;;;;;5093406;28;20051;-82
2020/12/28 04:42:31;;;;;;;3.60;1.17;;;2.80;99.90;;;;;;5093387;28;20123;-82
2020/12/28 04:44:57;;;;;;;2.38;1.13;;;2.80;99.90;;;;;;5093357;28;20024;-82
2020/12/28 04:47:24;;;;;;;1.55;1.30;;;2.80;99.90;;;;;;5075194;28;20024;-82
2020/12/28 04:49:50;;;;;;;1.35;1.10;;;2.80;99.90;;;;;;5093579;28;20056;-82
2020/12/28 04:52:16;;;;;;;1.60;1.10;;;2.80;99.90;;;;;;5093542;28;20031;-82
2020/12/28 04:54:43;;;;;;;1.23;1.13;;;2.80;99.90;;;;;;5093252;28;20382;-82
2020/12/28 04:57:09;;;;;;;1.50;1.27;;;2.80;99.90;;;;;;5096168;28;20034;-82
2020/12/28 04:59:35;;;;;;;1.90;1.20;;;2.80;99.90;;;;;;5078911;28;20024;-82
2020/12/28 05:02:01;;;;;;;1.58;1.30;;;2.80;99.90;;;;;;5097033;28;20360;-82
2020/12/28 05:04:27;;;;;;;2.28;1.10;;;2.90;99.90;;;;;;5097059;28;20406;-82
2020/12/28 05:07:05;;;;;;;1.23;1.08;;;3.00;99.90;;;;;;5078702;28;20020;-82
2020/12/28 05:09:31;;;;;;;1.10;1.00;;;3.00;99.90;;;;;;5096917;28;20116;-82
2020/12/28 05:12:04;;;;;;;3.63;1.17;;;3.00;99.90;;;;;;5078699;28;20020;-82
2020/12/28 05:14:31;;;;;;;2.43;1.30;;;3.00;99.90;;;;;;5096773;28;20046;-82
2020/12/28 05:16:57;;;;;;;3.17;1.33;;;3.00;99.90;;;;;;5078544;28;20111;-82
2020/12/28 05:19:23;;;;;;;1.20;1.10;;;2.90;99.90;;;;;;5096671;28;20030;-82
2020/12/28 05:21:49;;;;;;;1.58;1.00;;;2.90;99.90;;;;;;5096911;28;20106;-82
2020/12/28 05:24:16;;;;;;;1.23;1.10;;;2.90;99.90;;;;;;5078417;28;20028;-83
2020/12/28 05:26:43;;;;;;;1.40;0.90;;;2.90;99.90;;;;;;5096575;28;20081;-83
2020/12/28 05:29:14;;;;;;;1.65;1.10;;;2.90;99.90;;;;;;5096523;28;20024;-83
2020/12/28 05:31:42;;;;;;;1.55;1.00;;;2.90;99.90;;;;;;5078367;28;20115;-83
2020/12/28 05:34:23;;;;;;;1.15;0.90;;;3.00;99.90;;;;;;5078285;28;20136;-82
2020/12/28 05:36:50;;;;;;;1.25;0.93;;;3.00;99.90;;;;;;5096443;28;20503;-82
2020/12/28 05:39:19;;;;;;;1.50;0.90;;;3.00;99.90;;;;;;5078159;28;20020;-82
2020/12/28 05:41:55;;;;;;;1.45;1.00;;;3.00;99.90;;;;;;5078191;28;20028;-82
2020/12/28 05:44:26;;;;;;;1.50;1.08;;;3.00;99.90;;;;;;5096240;28;20042;-83
2020/12/28 05:47:03;;;;;;;0.88;0.68;;;3.00;99.90;;;;;;5078114;28;20070;-82
2020/12/28 05:49:56;;;;;;;2.53;0.90;;;3.00;99.90;;;;;;5078023;28;20497;-83
2020/12/28 05:52:22;;;;;;;1.10;0.90;;;3.00;99.90;;;;;;5075449;28;20139;-83
2020/12/28 05:54:57;;;;;;;0.70;0.70;;;3.10;99.90;;;;;;5095976;28;20024;-83
2020/12/28 05:57:23;;;;;;;0.80;0.70;;;3.10;99.90;;;;;;5077793;28;20518;-83
2020/12/28 05:59:49;;;;;;;0.70;0.70;;;3.10;99.90;;;;;;5077746;28;20023;-82
2020/12/28 06:02:15;;;;;;;0.80;0.80;;;3.10;99.90;;;;;;5095889;28;20024;-83
2020/12/28 06:04:42;;;;;;;1.33;0.90;;;3.00;99.90;;;;;;5077756;28;20051;-83
2020/12/28 06:07:08;;;;;;;1.25;1.00;;;3.00;99.90;;;;;;5095536;28;20031;-82
2020/12/28 06:09:33;;;;;;;1.83;0.90;;;2.90;99.90;;;;;;5095729;28;20020;-82
2020/12/28 06:12:08;;;;;;;1.05;0.95;;;3.00;99.90;;;;;;5096278;28;20099;-83
2020/12/28 06:14:35;;;;;;;1.48;0.90;;;3.00;99.90;;;;;;5095589;28;20094;-82
2020/12/28 06:17:06;;;;;;;1.17;0.90;;;3.00;99.90;;;;;;5077447;28;20115;-82
2020/12/28 06:19:32;;;;;;;1.13;0.90;;;3.00;99.90;;;;;;5077382;28;20028;-82
2020/12/28 06:21:58;;;;;;;2.80;1.48;;;2.90;99.90;;;;;;5095460;28;20016;-81
2020/12/28 06:24:28;;;;;;;2.00;0.88;;;2.80;99.90;;;;;;5077309;28;20024;-83
2020/12/28 06:27:07;;;;;;;5.05;1.05;;;2.80;99.90;;;;;;5077231;28;20024;-83
2020/12/28 06:29:34;;;;;;;1.10;0.93;;;2.80;99.90;;;;;;5077374;28;20471;-83
2020/12/28 06:32:14;;;;;;;0.98;0.90;;;2.70;99.90;;;;;;5077084;28;20056;-83
2020/12/28 06:34:41;;;;;;;1.73;0.82;;;2.70;99.90;;;;;;5095050;28;20028;-83
2020/12/28 06:37:06;;;;;;;1.85;1.20;;;2.70;99.90;;;;;;5094926;28;20069;-83
2020/12/28 06:39:33;;;;;;;1.77;1.20;;;2.70;99.90;;;;;;5076871;28;20094;-84
2020/12/28 06:42:15;;;;;;;0.70;0.70;;;2.70;99.90;;;;;;5077582;28;20471;-84
2020/12/28 06:44:42;;;;;;;1.20;1.10;;;2.70;99.90;;;;;;5076963;28;20027;-84
2020/12/28 06:47:16;;;;;;;0.85;0.75;;;2.70;99.90;;;;;;5076859;28;20425;-84
2020/12/28 06:49:42;;;;;;;3.72;0.90;;;2.60;99.90;;;;;;5076793;28;20024;-84
2020/12/28 06:52:08;;;;;;;3.88;1.10;;;2.70;99.90;;;;;;5076776;28;20058;-84
2020/12/28 06:54:34;;;;;;;1.63;0.95;;;2.60;99.90;;;;;;5076697;28;20020;-84
2020/12/28 06:57:04;;;;;;;0.90;0.80;;;2.60;99.90;;;;;;5076625;28;20111;-85
2020/12/28 06:59:31;;;;;;;2.25;1.38;;;2.60;99.90;;;;;;5076553;28;20471;-85
2020/12/28 07:02:01;;;;;;;1.20;1.00;;;2.60;99.90;;;;;;5094743;28;20016;-84
2020/12/28 07:04:31;;;;;;;4.40;1.63;;;2.60;99.90;;;;;;5095099;28;20020;-84
2020/12/28 07:07:02;;;;;;;12.32;5.72;;;2.60;99.90;;;;;;5078681;28;20020;-84
2020/12/28 07:09:28;;;;;;;8.65;3.75;;;2.50;99.90;;;;;;5076406;28;20487;-84
2020/12/28 07:11:54;;;;;;;6.63;3.08;;;2.50;99.90;;;;;;5094517;28;20043;-84
2020/12/28 07:14:21;;;;;;;8.95;2.10;;;2.40;99.90;;;;;;5076132;28;20052;-84
2020/12/28 07:16:55;;;;;;;7.40;3.80;;;2.30;99.90;;;;;;5076182;28;20020;-84
2020/12/28 07:19:21;;;;;;;4.70;2.60;;;2.40;99.90;;;;;;5075402;28;20111;-84
2020/12/28 07:21:47;;;;;;;9.63;5.10;;;2.40;99.90;;;;;;5076263;28;20066;-84
2020/12/28 07:24:12;;;;;;;9.45;4.15;;;2.30;99.90;;;;;;5076092;28;20107;-83
2020/12/28 07:26:41;;;;;;;9.00;3.38;;;2.40;99.90;;;;;;5094214;28;20024;-84
2020/12/28 07:29:15;;;;;;;7.07;3.97;;;2.40;99.90;;;;;;5094253;28;20026;-84
2020/12/28 07:31:42;;;;;;;5.45;2.42;;;2.40;99.90;;;;;;5076095;28;20560;-84
2020/12/28 07:34:12;;;;;;;8.02;3.42;;;2.40;99.90;;;;;;5075979;28;20110;-84
2020/12/28 07:36:38;;;;;;;2.90;2.00;;;2.30;99.90;;;;;;5094197;28;20028;-84
2020/12/28 07:39:10;;;;;;;6.07;3.70;;;2.30;99.90;;;;;;5094266;28;20028;-84
2020/12/28 07:41:36;;;;;;;7.68;3.72;;;2.30;99.90;;;;;;5075925;28;20016;-84
2020/12/28 07:44:02;;;;;;;7.53;3.55;;;2.30;99.90;;;;;;5093960;28;20107;-84
2020/12/28 07:46:47;;;;;;;7.10;3.35;;;2.30;99.90;;;;;;5075784;28;20073;-84
2020/12/28 07:49:30;;;;;;;10.68;4.63;;;2.30;99.90;;;;;;5075846;28;20035;-84
2020/12/28 07:52:13;;;;;;;10.35;4.95;;;2.30;99.90;;;;;;5093904;28;20103;-84
2020/12/28 07:55:05;;;;;;;12.20;6.35;;;2.30;99.90;;;;;;5075692;28;20024;-84
2020/12/28 07:58:01;;;;;;;9.32;6.32;;;2.40;99.90;;;;;;5075484;28;20069;-84
2020/12/28 08:00:33;;;;;;;8.70;3.92;;;2.40;99.90;;;;;;5075700;28;20032;-84
2020/12/28 08:03:24;;;;;;;7.05;4.10;;;2.40;99.90;;;;;;5093730;28;20021;-84
2020/12/28 08:05:52;;;;;;;10.25;7.32;;;2.50;99.90;;;;;;5095414;28;20137;-84
2020/12/28 08:08:23;;;;;;;7.75;4.78;;;2.50;99.90;;;;;;5075501;28;20432;-84
2020/12/28 08:10:50;;;;;;;4.75;3.28;;;2.50;99.90;;;;;;5075533;28;20111;-84
2020/12/28 08:13:23;;;;;;;6.82;4.30;;;2.60;99.90;;;;;;5075293;28;20090;-84
2020/12/28 08:15:49;;;;;;;6.15;4.40;;;3.00;99.90;;;;;;5075466;28;20518;-84
2020/12/28 08:18:14;;;;;;;6.78;4.40;;;3.30;99.90;;;;;;5075449;28;20032;-83
2020/12/28 08:20:40;;;;;;;6.13;3.15;;;3.40;99.90;;;;;;5093602;28;20468;-83
2020/12/28 08:23:06;;;;;;;5.00;3.78;;;3.50;99.90;;;;;;5075394;28;20387;-84
2020/12/28 08:25:33;;;;;;;3.50;2.60;;;3.70;99.90;;;;;;5093332;28;20526;-84
2020/12/28 08:28:01;;;;;;;3.95;2.45;;;3.90;99.90;;;;;;5075467;28;20111;-83
2020/12/28 08:30:30;;;;;;;3.25;2.20;;;3.90;99.90;;;;;;5095301;28;20020;-83
2020/12/28 08:32:59;;;;;;;2.53;1.73;;;4.00;99.90;;;;;;5079471;28;20364;-83
2020/12/28 08:35:25;;;;;;;6.10;3.90;;;4.00;99.90;;;;;;5079366;28;20164;-84
2020/12/28 08:37:52;;;;;;;3.65;2.47;;;4.00;99.90;;;;;;5079586;28;20360;-84
2020/12/28 08:40:20;;;;;;;12.43;8.02;;;4.00;99.90;;;;;;5097732;28;20020;-83
2020/12/28 08:42:54;;;;;;;4.57;2.80;;;4.10;99.90;;;;;;5079198;28;20062;-83
2020/12/28 08:45:21;;;;;;;;;;;4.20;99.90;;;;;;5097846;28;20016;-83
2020/12/28 08:47:54;;;;;;;11.68;9.63;;;4.10;99.90;;;;;;5079075;28;19946;-83
2020/12/28 08:50:20;;;;;;;3.50;2.30;;;4.00;99.90;;;;;;5079121;28;20024;-83
2020/12/28 08:52:57;;;;;;;2.90;2.33;;;3.90;99.90;;;;;;5079069;28;20474;-83
2020/12/28 08:55:23;;;;;;;2.55;1.92;;;3.90;99.90;;;;;;5079080;28;20051;-83
2020/12/28 08:57:59;;;;;;;1.80;1.20;;;4.00;99.90;;;;;;5078917;28;20431;-83
2020/12/28 09:00:26;;;;;;;11.68;4.53;;;4.00;99.90;;;;;;5078852;28;20028;-83
2020/12/28 09:02:57;;;;;;;4.32;2.30;;;4.10;99.90;;;;;;5078844;28;20023;-83
2020/12/28 09:05:24;;;;;;;3.20;2.10;;;4.20;99.90;;;;;;5078810;28;20497;-84
2020/12/28 09:07:50;;;;;;;4.10;2.80;;;4.20;99.90;;;;;;5078623;28;20024;-83
2020/12/28 09:10:16;;;;;;;3.63;2.63;;;4.40;99.90;;;;;;5078720;28;20047;-84
2020/12/28 09:12:42;;;;;;;4.80;3.30;;;4.30;99.90;;;;;;5078581;28;20032;-83
2020/12/28 09:15:08;;;;;;;4.80;3.55;;;4.20;99.90;;;;;;5096758;28;20036;-83
2020/12/28 09:17:34;;;;;;;4.43;1.88;;;4.20;99.90;;;;;;5078480;28;20023;-83
2020/12/28 09:20:00;;;;;;;4.00;2.28;;;4.20;99.90;;;;;;5096744;28;20031;-83
2020/12/28 09:22:25;;;;;;;2.42;1.50;;;4.10;99.90;;;;;;5096663;28;20471;-83
2020/12/28 09:24:51;;;;;;;3.25;2.40;;;4.30;99.90;;;;;;5097189;28;20027;-83
2020/12/28 09:27:17;;;;;;;3.72;2.85;;;4.30;99.90;;;;;;5078463;28;20411;-83
2020/12/28 09:29:43;;;;;;;2.60;2.10;;;4.30;99.90;;;;;;5096823;28;20031;-83
2020/12/28 09:32:08;;;;;;;3.92;2.70;;;4.40;99.90;;;;;;5078255;28;20020;-84
2020/12/28 09:34:34;;;;;;;4.53;3.80;;;4.50;99.90;;;;;;5078205;28;20475;-82
2020/12/28 09:37:02;;;;;;;4.45;3.40;;;4.30;99.90;;;;;;5096340;28;20053;-83
2020/12/28 09:39:28;;;;;;;3.72;2.90;;;4.40;99.90;;;;;;5078082;28;20056;-83
2020/12/28 09:41:54;;;;;;;2.30;1.80;;;4.40;99.90;;;;;;5095412;28;20020;-83
2020/12/28 09:44:20;;;;;;;4.18;1.92;;;4.50;99.90;;;;;;5096239;28;20372;-82
2020/12/28 09:46:45;;;;;;;4.60;3.20;;;4.20;99.90;;;;;;5096143;28;20016;-82
2020/12/28 09:49:11;;;;;;;3.47;2.13;;;4.00;99.90;;;;;;5096179;28;20084;-82
2020/12/28 09:51:37;;;;;;;3.67;2.55;;;4.00;99.90;;;;;;5096041;28;20028;-82
2020/12/28 09:54:02;;;;;;;2.88;2.17;;;4.10;99.90;;;;;;5077886;28;20024;-82
2020/12/28 09:56:28;;;;;;;5.63;3.63;;;4.30;99.90;;;;;;5096000;28;20020;-82
2020/12/28 09:58:54;;;;;;;7.75;3.67;;;4.40;99.90;;;;;;5077726;28;20546;-83
2020/12/28 10:01:19;;;;;;;3.03;2.05;;;4.60;99.90;;;;;;5078272;28;20472;-82
2020/12/28 10:03:45;;;;;;;5.93;3.92;;;4.60;99.90;;;;;;5097856;28;20020;-85
2020/12/28 10:06:32;;;;;;;6.88;4.05;;;4.60;99.90;;;;;;5084356;28;20024;-81
2020/12/28 10:09:02;;;;;;;5.00;2.10;;;4.50;99.90;;;;;;5096909;28;20024;-82
2020/12/28 10:11:29;;;;;;;5.82;2.80;;;4.60;99.90;;;;;;5078299;28;20071;-78
2020/12/28 10:13:54;;;;;;;3.97;2.72;;;4.60;99.90;;;;;;5074459;28;20053;-80
2020/12/28 10:16:24;;;;;;;2.83;2.30;;;4.60;99.90;;;;;;5076615;28;20521;-83
2020/12/28 10:18:52;;;;;;;5.20;3.30;;;4.50;99.90;;;;;;5077818;28;20028;-81
2020/12/28 10:21:18;;;;;;;3.47;1.92;;;4.60;99.90;;;;;;5074996;28;20024;-82
2020/12/28 10:23:44;;;;;;;2.78;2.20;;;4.40;99.90;;;;;;5074702;28;20070;-81
2020/12/28 10:26:16;;;;;;;3.35;2.30;;;4.40;99.90;;;;;;5075657;28;20021;-81
2020/12/28 10:28:42;;;;;;;2.58;2.17;;;4.50;99.90;;;;;;5074315;28;20421;-82
2020/12/28 10:31:12;;;;;;;2.55;1.50;;;4.50;99.90;;;;;;5062747;28;20537;-79
2020/12/28 10:33:39;;;;;;;3.03;2.10;;;4.50;99.90;;;;;;5075805;28;20036;-80
2020/12/28 10:36:06;;;;;;;2.50;1.80;;;4.50;99.90;;;;;;5075408;28;20020;-81
2020/12/28 10:38:32;;;;;;;1.75;1.48;;;4.60;99.90;;;;;;5075280;28;20414;-81
2020/12/28 10:40:58;;;;;;;3.50;1.38;;;4.60;99.90;;;;;;5074951;28;20025;-81
2020/12/28 10:43:23;;;;;;;2.75;1.98;;;4.50;99.90;;;;;;5074881;28;20104;-81
2020/12/28 10:45:49;;;;;;;2.20;1.75;;;4.50;99.90;;;;;;5075330;28;20020;-81
2020/12/28 10:48:15;;;;;;;3.25;2.20;;;4.50;99.90;;;;;;5075074;28;20032;-81
2020/12/28 10:50:40;;;;;;;2.58;1.58;;;4.50;99.90;;;;;;5074875;28;20060;-81
2020/12/28 10:53:06;;;;;;;6.93;1.50;;;4.40;99.90;;;;;;5073453;28;20078;-81
2020/12/28 10:55:32;;;;;;;2.25;1.45;;;4.50;99.90;;;;;;5073617;28;20028;-81
2020/12/28 10:57:57;;;;;;;3.03;1.80;;;4.40;99.90;;;;;;5074803;28;20082;-80
2020/12/28 11:00:23;;;;;;;4.03;1.33;;;4.50;99.90;;;;;;5074598;28;20060;-82
2020/12/28 11:02:50;;;;;;;2.80;1.60;;;4.40;99.90;;;;;;5073058;28;20025;-79
2020/12/28 11:05:15;;;;;;;5.35;2.35;;;4.50;99.90;;;;;;5073179;28;20020;-80
2020/12/28 11:07:41;;;;;;;4.88;2.47;;;4.40;99.90;;;;;;5073084;28;20116;-80
2020/12/28 11:10:07;;;;;;;6.57;4.55;;;4.40;99.90;;;;;;5074602;28;20107;-79
2020/12/28 11:12:33;;;;;;;6.50;3.65;;;4.30;99.90;;;;;;5074261;28;20037;-79
2020/12/28 11:15:06;;;;;;;21.02;11.95;;;4.30;99.90;;;;;;5132080;27;20309;-79
2020/12/28 11:17:32;;;;;;;4.03;1.77;;;4.30;99.90;;;;;;5110160;28;20118;-80
2020/12/28 11:19:58;;;;;;;29.02;15.52;;;4.30;99.90;;;;;;5111366;28;20085;-80
2020/12/28 11:22:26;;;;;;;29.88;14.15;;;4.40;99.90;;;;;;5111310;28;20020;-80
2020/12/28 11:24:51;;;;;;;4.63;2.72;;;4.40;99.90;;;;;;5110005;28;20028;-81
2020/12/28 11:27:17;;;;;;;3.85;2.15;;;4.30;99.90;;;;;;5109867;28;20019;-79
2020/12/28 11:29:42;;;;;;;5.15;2.60;;;4.40;99.90;;;;;;5111157;28;20016;-80
2020/12/28 11:32:08;;;;;;;16.88;8.43;;;4.40;99.90;;;;;;5111217;28;20031;-82
2020/12/28 11:34:34;;;;;;;3.10;2.10;;;4.60;99.90;;;;;;5109719;28;20467;-78
2020/12/28 11:36:59;;;;;;;3.28;1.50;;;4.80;99.90;;;;;;5111332;28;20117;-78
2020/12/28 11:39:25;;;;;;;2.13;1.40;;;4.70;99.90;;;;;;5111292;28;20463;-79
2020/12/28 11:41:54;;;;;;;4.40;1.67;;;4.60;99.90;;;;;;5111088;28;20475;-80
2020/12/28 16:27:59;;;;;;;1.77;0.93;;;3.80;99.90;;;;;;4976168;28;20478;-82
2020/12/28 16:30:25;;;;;;;3.40;1.60;;;3.80;99.90;;;;;;4978059;28;20035;-83
2020/12/28 16:32:50;;;;;;;5.97;1.70;;;3.80;99.90;;;;;;4977436;28;20046;-84
2020/12/28 16:35:16;;;;;;;3.25;1.88;;;3.70;99.90;;;;;;4976340;28;20022;-83
2020/12/28 16:37:42;;;;;;;3.22;1.58;;;3.60;99.90;;;;;;4960323;28;20059;-83
2020/12/28 16:40:07;;;;;;;5.20;1.17;;;3.60;99.90;;;;;;4977408;28;20019;-84
2020/12/28 16:42:33;;;;;;;3.63;1.40;;;3.40;99.90;;;;;;4977619;28;20037;-84
2020/12/28 16:44:59;;;;;;;2.97;1.30;;;3.50;99.90;;;;;;4976158;28;20030;-83
2020/12/28 16:47:24;;;;;;;2.70;1.50;;;3.60;99.90;;;;;;4975917;28;20061;-83
2020/12/28 16:49:50;;;;;;;2.78;1.45;;;3.70;99.90;;;;;;4975907;28;20114;-83
2020/12/28 16:52:16;;;;;;;2.58;1.73;;;3.70;99.90;;;;;;4977434;28;20044;-83
2020/12/28 16:54:41;;;;;;;3.05;1.30;;;3.60;99.90;;;;;;4977077;28;20041;-84
2020/12/28 16:57:07;;;;;;;3.03;1.38;;;3.60;99.90;;;;;;4977373;28;20027;-83
2020/12/28 16:59:33;;;;;;;4.32;1.40;;;3.60;99.90;;;;;;4975775;28;20109;-84
2020/12/28 17:01:59;;;;;;;3.03;1.52;;;3.50;99.90;;;;;;4976969;28;20031;-82
2020/12/28 17:04:27;;;;;;;2.17;1.30;;;3.60;99.90;;;;;;4975587;28;20059;-84
2020/12/28 17:06:58;;;;;;;1.30;1.17;;;3.70;99.90;;;;;;4975584;28;20029;-83
2020/12/28 17:09:24;;;;;;;4.55;1.40;;;3.70;99.90;;;;;;4976767;28;20022;-83
2020/12/28 17:11:53;;;;;;;7.70;2.65;;;3.40;99.90;;;;;;4975422;28;20026;-84
2020/12/28 17:14:19;;;;;;;4.25;1.42;;;3.20;99.90;;;;;;4976623;28;20034;-83
2020/12/28 17:16:46;;;;;;;1.65;1.27;;;3.20;99.90;;;;;;4975399;28;20500;-83
2020/12/28 17:19:13;;;;;;;2.72;1.40;;;3.20;99.90;;;;;;4975294;28;20030;-83
2020/12/28 17:21:38;;;;;;;4.88;1.30;;;3.20;99.90;;;;;;4975318;28;20474;-83
2020/12/28 17:24:06;;;;;;;4.75;1.23;;;3.20;99.90;;;;;;4976454;28;20034;-83
2020/12/28 17:26:32;;;;;;;9.40;1.60;;;3.20;99.90;;;;;;4976325;28;20078;-83
2020/12/28 17:28:57;;;;;;;7.00;2.50;;;3.40;99.90;;;;;;4975069;28;20129;-83
2020/12/28 17:31:23;;;;;;;4.15;2.10;;;3.30;99.90;;;;;;4976450;28;20042;-83
2020/12/28 17:33:49;;;;;;;3.70;1.92;;;3.30;99.90;;;;;;4974972;28;20034;-83
2020/12/28 17:36:14;;;;;;;6.70;1.80;;;3.40;99.90;;;;;;4976287;28;20111;-83
2020/12/28 17:38:40;;;;;;;7.82;1.83;;;3.40;99.90;;;;;;4975220;28;20081;-82
2020/12/28 17:41:07;;;;;;;4.88;2.10;;;3.30;99.90;;;;;;4975048;28;20031;-83
2020/12/28 17:43:33;;;;;;;10.48;2.97;;;3.50;99.90;;;;;;4974896;28;20030;-83